sensor_id;sensor_type;location;lat;lon;timestamp;P1;durP1;ratioP1;P2;durP2;ratioP2
74630;SDS011;63138;55.082;38.804;2023-04-03T00:01:20;17.33;;;9.17;;
74630;SDS011;63138;55.082;38.804;2023-04-03T00:03:46;15.27;;;8.23;;
74630;SDS011;63138;55.082;38.804;2023-04-03T00:06:19;17.88;;;10.20;;
74630;SDS011;63138;55.082;38.804;2023-04-03T00:09:10;15.88;;;9.27;;
74630;SDS011;63138;55.082;38.804;2023-04-03T00:11:37;18.93;;;9.87;;
74630;SDS011;63138;55.082;38.804;2023-04-03T00:14:05;17.17;;;9.98;;
74630;SDS011;63138;55.082;38.804;2023-04-03T00:16:56;13.35;;;8.88;;
74630;SDS011;63138;55.082;38.804;2023-04-03T00:19:22;14.77;;;8.98;;
74630;SDS011;63138;55.082;38.804;2023-04-03T00:21:48;14.27;;;9.07;;
74630;SDS011;63138;55.082;38.804;2023-04-03T00:24:13;13.75;;;7.78;;
74630;SDS011;63138;55.082;38.804;2023-04-03T00:26:41;13.50;;;7.17;;
74630;SDS011;63138;55.082;38.804;2023-04-03T00:29:07;14.68;;;6.35;;
74630;SDS011;63138;55.082;38.804;2023-04-03T00:31:33;9.15;;;6.88;;
74630;SDS011;63138;55.082;38.804;2023-04-03T00:33:59;11.15;;;6.22;;
74630;SDS011;63138;55.082;38.804;2023-04-03T00:36:26;11.73;;;7.17;;
74630;SDS011;63138;55.082;38.804;2023-04-03T00:38:52;20.25;;;8.15;;
74630;SDS011;63138;55.082;38.804;2023-04-03T00:41:18;13.40;;;9.00;;
74630;SDS011;63138;55.082;38.804;2023-04-03T00:43:45;14.07;;;9.50;;
74630;SDS011;63138;55.082;38.804;2023-04-03T00:46:11;13.35;;;8.38;;
74630;SDS011;63138;55.082;38.804;2023-04-03T00:48:46;14.07;;;7.95;;
74630;SDS011;63138;55.082;38.804;2023-04-03T00:51:14;11.45;;;7.07;;
74630;SDS011;63138;55.082;38.804;2023-04-03T00:54:01;11.68;;;7.32;;
74630;SDS011;63138;55.082;38.804;2023-04-03T00:56:55;13.87;;;8.50;;
74630;SDS011;63138;55.082;38.804;2023-04-03T00:59:25;16.38;;;8.10;;
74630;SDS011;63138;55.082;38.804;2023-04-03T01:01:55;13.55;;;7.20;;
74630;SDS011;63138;55.082;38.804;2023-04-03T01:04:37;13.20;;;7.57;;
74630;SDS011;63138;55.082;38.804;2023-04-03T01:09:48;12.10;;;8.27;;
74630;SDS011;63138;55.082;38.804;2023-04-03T01:12:23;13.52;;;9.35;;
74630;SDS011;63138;55.082;38.804;2023-04-03T01:14:51;17.83;;;11.38;;
74630;SDS011;63138;55.082;38.804;2023-04-03T01:25:12;14.25;;;9.02;;
74630;SDS011;63138;55.082;38.804;2023-04-03T01:27:38;11.77;;;8.35;;
74630;SDS011;63138;55.082;38.804;2023-04-03T01:30:32;12.68;;;8.18;;
74630;SDS011;63138;55.082;38.804;2023-04-03T01:33:02;20.02;;;11.90;;
74630;SDS011;63138;55.082;38.804;2023-04-03T01:35:30;20.20;;;12.17;;
74630;SDS011;63138;55.082;38.804;2023-04-03T01:37:56;20.42;;;13.23;;
74630;SDS011;63138;55.082;38.804;2023-04-03T01:43:14;19.52;;;10.60;;
74630;SDS011;63138;55.082;38.804;2023-04-03T01:45:40;13.90;;;9.27;;
74630;SDS011;63138;55.082;38.804;2023-04-03T01:48:07;14.45;;;10.30;;
74630;SDS011;63138;55.082;38.804;2023-04-03T01:50:33;18.15;;;10.43;;
74630;SDS011;63138;55.082;38.804;2023-04-03T01:52:59;21.55;;;13.18;;
74630;SDS011;63138;55.082;38.804;2023-04-03T01:55:30;19.60;;;12.07;;
74630;SDS011;63138;55.082;38.804;2023-04-03T01:57:56;17.48;;;11.55;;
74630;SDS011;63138;55.082;38.804;2023-04-03T02:00:22;13.95;;;9.50;;
74630;SDS011;63138;55.082;38.804;2023-04-03T02:02:49;18.88;;;10.20;;
74630;SDS011;63138;55.082;38.804;2023-04-03T02:05:21;14.98;;;8.70;;
74630;SDS011;63138;55.082;38.804;2023-04-03T02:07:50;16.43;;;9.87;;
74630;SDS011;63138;55.082;38.804;2023-04-03T02:10:16;18.95;;;10.80;;
74630;SDS011;63138;55.082;38.804;2023-04-03T02:12:42;22.58;;;12.07;;
74630;SDS011;63138;55.082;38.804;2023-04-03T02:15:13;20.55;;;11.57;;
74630;SDS011;63138;55.082;38.804;2023-04-03T02:17:39;16.23;;;8.97;;
74630;SDS011;63138;55.082;38.804;2023-04-03T02:20:05;13.32;;;8.65;;
74630;SDS011;63138;55.082;38.804;2023-04-03T02:22:33;18.42;;;11.57;;
74630;SDS011;63138;55.082;38.804;2023-04-03T02:25:00;19.40;;;12.93;;
74630;SDS011;63138;55.082;38.804;2023-04-03T02:27:26;21.93;;;12.80;;
74630;SDS011;63138;55.082;38.804;2023-04-03T02:29:54;19.00;;;11.43;;
74630;SDS011;63138;55.082;38.804;2023-04-03T02:32:20;16.15;;;10.75;;
74630;SDS011;63138;55.082;38.804;2023-04-03T02:34:47;17.23;;;9.38;;
74630;SDS011;63138;55.082;38.804;2023-04-03T02:37:13;18.55;;;9.75;;
74630;SDS011;63138;55.082;38.804;2023-04-03T02:39:41;14.80;;;9.40;;
74630;SDS011;63138;55.082;38.804;2023-04-03T02:42:07;16.23;;;10.57;;
74630;SDS011;63138;55.082;38.804;2023-04-03T02:44:34;23.27;;;11.95;;
74630;SDS011;63138;55.082;38.804;2023-04-03T02:47:00;20.33;;;10.70;;
74630;SDS011;63138;55.082;38.804;2023-04-03T02:49:27;13.63;;;8.82;;
74630;SDS011;63138;55.082;38.804;2023-04-03T02:51:53;12.40;;;7.78;;
74630;SDS011;63138;55.082;38.804;2023-04-03T02:54:20;14.90;;;9.65;;
74630;SDS011;63138;55.082;38.804;2023-04-03T02:56:50;17.85;;;11.23;;
74630;SDS011;63138;55.082;38.804;2023-04-03T02:59:16;21.87;;;10.80;;
74630;SDS011;63138;55.082;38.804;2023-04-03T03:01:42;18.10;;;10.98;;
74630;SDS011;63138;55.082;38.804;2023-04-03T03:04:08;15.27;;;9.37;;
74630;SDS011;63138;55.082;38.804;2023-04-03T03:06:35;15.63;;;9.00;;
74630;SDS011;63138;55.082;38.804;2023-04-03T03:09:02;16.50;;;10.82;;
74630;SDS011;63138;55.082;38.804;2023-04-03T03:11:30;14.25;;;9.15;;
74630;SDS011;63138;55.082;38.804;2023-04-03T03:13:57;16.50;;;10.48;;
74630;SDS011;63138;55.082;38.804;2023-04-03T03:16:25;19.48;;;11.30;;
74630;SDS011;63138;55.082;38.804;2023-04-03T03:18:51;16.30;;;9.77;;
74630;SDS011;63138;55.082;38.804;2023-04-03T03:21:17;22.08;;;11.20;;
74630;SDS011;63138;55.082;38.804;2023-04-03T03:23:43;14.70;;;10.25;;
74630;SDS011;63138;55.082;38.804;2023-04-03T03:26:13;21.10;;;11.52;;
74630;SDS011;63138;55.082;38.804;2023-04-03T03:28:39;24.63;;;12.97;;
74630;SDS011;63138;55.082;38.804;2023-04-03T03:31:06;20.33;;;12.05;;
74630;SDS011;63138;55.082;38.804;2023-04-03T03:33:35;24.50;;;12.13;;
74630;SDS011;63138;55.082;38.804;2023-04-03T03:36:01;19.63;;;11.18;;
74630;SDS011;63138;55.082;38.804;2023-04-03T03:38:27;25.67;;;11.87;;
74630;SDS011;63138;55.082;38.804;2023-04-03T03:40:59;24.47;;;12.70;;
74630;SDS011;63138;55.082;38.804;2023-04-03T03:43:29;19.77;;;11.27;;
74630;SDS011;63138;55.082;38.804;2023-04-03T03:45:56;18.58;;;12.27;;
74630;SDS011;63138;55.082;38.804;2023-04-03T03:48:23;19.08;;;12.05;;
74630;SDS011;63138;55.082;38.804;2023-04-03T03:50:50;17.40;;;12.45;;
74630;SDS011;63138;55.082;38.804;2023-04-03T03:53:17;20.63;;;11.97;;
74630;SDS011;63138;55.082;38.804;2023-04-03T03:55:49;12.88;;;7.82;;
74630;SDS011;63138;55.082;38.804;2023-04-03T03:58:19;16.65;;;9.65;;
74630;SDS011;63138;55.082;38.804;2023-04-03T04:00:49;16.58;;;10.15;;
74630;SDS011;63138;55.082;38.804;2023-04-03T04:03:15;14.13;;;8.20;;
74630;SDS011;63138;55.082;38.804;2023-04-03T04:05:44;17.67;;;11.33;;
74630;SDS011;63138;55.082;38.804;2023-04-03T04:08:10;20.63;;;11.00;;
74630;SDS011;63138;55.082;38.804;2023-04-03T04:11:28;16.35;;;8.80;;
74630;SDS011;63138;55.082;38.804;2023-04-03T04:13:55;19.95;;;10.35;;
74630;SDS011;63138;55.082;38.804;2023-04-03T04:16:24;16.97;;;10.83;;
74630;SDS011;63138;55.082;38.804;2023-04-03T04:18:51;22.85;;;9.70;;
74630;SDS011;63138;55.082;38.804;2023-04-03T04:21:19;18.10;;;10.05;;
74630;SDS011;63138;55.082;38.804;2023-04-03T04:24:05;14.88;;;8.90;;
74630;SDS011;63138;55.082;38.804;2023-04-03T04:26:32;19.70;;;11.93;;
74630;SDS011;63138;55.082;38.804;2023-04-03T04:29:00;17.83;;;10.50;;
74630;SDS011;63138;55.082;38.804;2023-04-03T04:31:27;23.60;;;9.77;;
74630;SDS011;63138;55.082;38.804;2023-04-03T04:33:54;14.77;;;9.07;;
74630;SDS011;63138;55.082;38.804;2023-04-03T04:36:20;18.90;;;11.02;;
74630;SDS011;63138;55.082;38.804;2023-04-03T04:38:47;14.50;;;10.00;;
74630;SDS011;63138;55.082;38.804;2023-04-03T04:41:13;16.10;;;10.60;;
74630;SDS011;63138;55.082;38.804;2023-04-03T04:43:40;20.60;;;10.70;;
74630;SDS011;63138;55.082;38.804;2023-04-03T04:46:07;17.98;;;10.35;;
74630;SDS011;63138;55.082;38.804;2023-04-03T04:48:40;15.13;;;10.00;;
74630;SDS011;63138;55.082;38.804;2023-04-03T04:51:07;18.05;;;10.98;;
74630;SDS011;63138;55.082;38.804;2023-04-03T04:53:35;20.07;;;10.83;;
74630;SDS011;63138;55.082;38.804;2023-04-03T04:56:07;20.58;;;11.40;;
74630;SDS011;63138;55.082;38.804;2023-04-03T04:58:36;18.10;;;10.80;;
74630;SDS011;63138;55.082;38.804;2023-04-03T05:01:06;18.83;;;10.15;;
74630;SDS011;63138;55.082;38.804;2023-04-03T05:06:38;20.43;;;10.43;;
74630;SDS011;63138;55.082;38.804;2023-04-03T05:09:33;15.50;;;8.32;;
74630;SDS011;63138;55.082;38.804;2023-04-03T05:11:59;12.68;;;8.65;;
74630;SDS011;63138;55.082;38.804;2023-04-03T05:14:28;16.63;;;9.45;;
74630;SDS011;63138;55.082;38.804;2023-04-03T05:17:00;16.40;;;9.67;;
74630;SDS011;63138;55.082;38.804;2023-04-03T05:19:31;14.57;;;9.05;;
74630;SDS011;63138;55.082;38.804;2023-04-03T05:22:00;19.23;;;10.02;;
74630;SDS011;63138;55.082;38.804;2023-04-03T05:24:29;16.50;;;10.30;;
74630;SDS011;63138;55.082;38.804;2023-04-03T05:26:55;17.88;;;11.75;;
74630;SDS011;63138;55.082;38.804;2023-04-03T05:29:21;20.27;;;11.23;;
74630;SDS011;63138;55.082;38.804;2023-04-03T05:32:12;17.48;;;10.73;;
74630;SDS011;63138;55.082;38.804;2023-04-03T05:35:09;16.90;;;9.77;;
74630;SDS011;63138;55.082;38.804;2023-04-03T05:40:22;27.95;;;15.48;;
74630;SDS011;63138;55.082;38.804;2023-04-03T05:42:53;31.47;;;15.50;;
74630;SDS011;63138;55.082;38.804;2023-04-03T05:45:22;24.38;;;13.82;;
74630;SDS011;63138;55.082;38.804;2023-04-03T05:47:50;19.30;;;11.80;;
74630;SDS011;63138;55.082;38.804;2023-04-03T05:50:40;23.58;;;13.43;;
74630;SDS011;63138;55.082;38.804;2023-04-03T05:53:13;24.77;;;13.85;;
74630;SDS011;63138;55.082;38.804;2023-04-03T05:55:49;20.13;;;12.43;;
74630;SDS011;63138;55.082;38.804;2023-04-03T05:58:16;21.60;;;13.07;;
74630;SDS011;63138;55.082;38.804;2023-04-03T06:00:47;21.65;;;11.90;;
74630;SDS011;63138;55.082;38.804;2023-04-03T06:06:06;17.13;;;10.60;;
74630;SDS011;63138;55.082;38.804;2023-04-03T06:08:59;23.42;;;11.82;;
74630;SDS011;63138;55.082;38.804;2023-04-03T06:11:29;16.00;;;10.27;;
74630;SDS011;63138;55.082;38.804;2023-04-03T06:13:55;17.67;;;12.27;;
74630;SDS011;63138;55.082;38.804;2023-04-03T06:16:25;23.30;;;12.32;;
74630;SDS011;63138;55.082;38.804;2023-04-03T06:18:51;23.87;;;11.93;;
74630;SDS011;63138;55.082;38.804;2023-04-03T06:21:17;25.90;;;12.00;;
74630;SDS011;63138;55.082;38.804;2023-04-03T06:23:43;20.60;;;12.02;;
74630;SDS011;63138;55.082;38.804;2023-04-03T06:26:09;32.20;;;13.02;;
74630;SDS011;63138;55.082;38.804;2023-04-03T06:28:36;28.23;;;12.20;;
74630;SDS011;63138;55.082;38.804;2023-04-03T06:31:02;19.33;;;11.32;;
74630;SDS011;63138;55.082;38.804;2023-04-03T06:33:28;22.42;;;11.43;;
74630;SDS011;63138;55.082;38.804;2023-04-03T06:35:59;20.35;;;11.35;;
74630;SDS011;63138;55.082;38.804;2023-04-03T06:38:25;23.77;;;12.00;;
74630;SDS011;63138;55.082;38.804;2023-04-03T06:41:09;21.70;;;11.67;;
74630;SDS011;63138;55.082;38.804;2023-04-03T06:43:35;25.83;;;12.88;;
74630;SDS011;63138;55.082;38.804;2023-04-03T06:46:01;16.38;;;10.75;;
74630;SDS011;63138;55.082;38.804;2023-04-03T06:48:28;22.65;;;11.23;;
74630;SDS011;63138;55.082;38.804;2023-04-03T06:50:54;19.17;;;10.20;;
74630;SDS011;63138;55.082;38.804;2023-04-03T06:56:16;22.02;;;9.75;;
74630;SDS011;63138;55.082;38.804;2023-04-03T06:58:43;20.10;;;9.48;;
74630;SDS011;63138;55.082;38.804;2023-04-03T07:04:02;20.47;;;10.13;;
74630;SDS011;63138;55.082;38.804;2023-04-03T07:06:34;25.70;;;10.40;;
74630;SDS011;63138;55.082;38.804;2023-04-03T07:09:00;22.13;;;10.02;;
74630;SDS011;63138;55.082;38.804;2023-04-03T07:11:26;21.55;;;10.55;;
74630;SDS011;63138;55.082;38.804;2023-04-03T07:13:54;19.45;;;10.57;;
74630;SDS011;63138;55.082;38.804;2023-04-03T07:16:20;22.90;;;10.53;;
74630;SDS011;63138;55.082;38.804;2023-04-03T07:18:46;26.67;;;10.60;;
74630;SDS011;63138;55.082;38.804;2023-04-03T07:21:13;21.40;;;10.48;;
74630;SDS011;63138;55.082;38.804;2023-04-03T07:26:31;21.30;;;11.32;;
74630;SDS011;63138;55.082;38.804;2023-04-03T07:28:59;24.33;;;11.27;;
74630;SDS011;63138;55.082;38.804;2023-04-03T07:31:25;26.80;;;12.32;;
74630;SDS011;63138;55.082;38.804;2023-04-03T07:33:50;27.42;;;12.43;;
74630;SDS011;63138;55.082;38.804;2023-04-03T07:36:18;20.10;;;11.43;;
74630;SDS011;63138;55.082;38.804;2023-04-03T07:38:46;20.95;;;10.90;;
74630;SDS011;63138;55.082;38.804;2023-04-03T07:41:16;23.17;;;12.23;;
74630;SDS011;63138;55.082;38.804;2023-04-03T07:43:47;22.45;;;10.85;;
74630;SDS011;63138;55.082;38.804;2023-04-03T07:46:15;22.13;;;11.52;;
74630;SDS011;63138;55.082;38.804;2023-04-03T07:48:42;29.13;;;12.33;;
74630;SDS011;63138;55.082;38.804;2023-04-03T07:51:36;27.65;;;14.80;;
74630;SDS011;63138;55.082;38.804;2023-04-03T07:54:28;31.42;;;16.90;;
74630;SDS011;63138;55.082;38.804;2023-04-03T07:56:55;19.75;;;12.15;;
74630;SDS011;63138;55.082;38.804;2023-04-03T07:59:23;18.63;;;9.85;;
74630;SDS011;63138;55.082;38.804;2023-04-03T08:01:50;16.87;;;10.30;;
74630;SDS011;63138;55.082;38.804;2023-04-03T08:07:10;20.05;;;10.57;;
74630;SDS011;63138;55.082;38.804;2023-04-03T08:09:35;23.42;;;10.25;;
74630;SDS011;63138;55.082;38.804;2023-04-03T08:12:01;22.40;;;11.27;;
74630;SDS011;63138;55.082;38.804;2023-04-03T08:14:32;17.95;;;9.45;;
74630;SDS011;63138;55.082;38.804;2023-04-03T08:17:28;29.77;;;10.00;;
74630;SDS011;63138;55.082;38.804;2023-04-03T08:19:58;15.03;;;8.33;;
74630;SDS011;63138;55.082;38.804;2023-04-03T08:22:24;13.35;;;9.50;;
74630;SDS011;63138;55.082;38.804;2023-04-03T08:24:52;14.20;;;9.18;;
74630;SDS011;63138;55.082;38.804;2023-04-03T08:27:18;14.57;;;9.45;;
74630;SDS011;63138;55.082;38.804;2023-04-03T08:29:44;12.53;;;7.83;;
74630;SDS011;63138;55.082;38.804;2023-04-03T08:32:36;17.38;;;8.90;;
74630;SDS011;63138;55.082;38.804;2023-04-03T08:35:38;13.93;;;8.52;;
74630;SDS011;63138;55.082;38.804;2023-04-03T08:38:09;13.82;;;9.20;;
74630;SDS011;63138;55.082;38.804;2023-04-03T08:40:37;12.23;;;7.50;;
74630;SDS011;63138;55.082;38.804;2023-04-03T08:43:37;10.97;;;8.67;;
74630;SDS011;63138;55.082;38.804;2023-04-03T08:46:10;15.55;;;8.95;;
74630;SDS011;63138;55.082;38.804;2023-04-03T08:48:43;14.95;;;8.80;;
74630;SDS011;63138;55.082;38.804;2023-04-03T08:51:14;19.05;;;10.05;;
74630;SDS011;63138;55.082;38.804;2023-04-03T08:53:52;13.98;;;9.40;;
74630;SDS011;63138;55.082;38.804;2023-04-03T08:56:52;11.87;;;9.30;;
74630;SDS011;63138;55.082;38.804;2023-04-03T08:59:23;14.15;;;8.20;;
74630;SDS011;63138;55.082;38.804;2023-04-03T09:01:54;15.57;;;8.68;;
74630;SDS011;63138;55.082;38.804;2023-04-03T09:04:24;13.65;;;8.48;;
74630;SDS011;63138;55.082;38.804;2023-04-03T09:06:54;10.52;;;8.32;;
74630;SDS011;63138;55.082;38.804;2023-04-03T09:09:35;11.10;;;8.20;;
74630;SDS011;63138;55.082;38.804;2023-04-03T09:15:18;12.98;;;8.93;;
74630;SDS011;63138;55.082;38.804;2023-04-03T09:27:00;12.05;;;8.98;;
74630;SDS011;63138;55.082;38.804;2023-04-03T09:29:31;14.13;;;9.13;;
74630;SDS011;63138;55.082;38.804;2023-04-03T09:32:19;10.23;;;7.40;;
74630;SDS011;63138;55.082;38.804;2023-04-03T09:34:51;13.05;;;7.13;;
74630;SDS011;63138;55.082;38.804;2023-04-03T09:42:57;11.07;;;7.35;;
74630;SDS011;63138;55.082;38.804;2023-04-03T09:45:34;10.63;;;6.93;;
74630;SDS011;63138;55.082;38.804;2023-04-03T09:50:35;9.27;;;6.63;;
74630;SDS011;63138;55.082;38.804;2023-04-03T09:53:06;9.82;;;6.88;;
74630;SDS011;63138;55.082;38.804;2023-04-03T09:55:51;9.30;;;6.80;;
74630;SDS011;63138;55.082;38.804;2023-04-03T09:59:23;9.40;;;7.05;;
74630;SDS011;63138;55.082;38.804;2023-04-03T10:06:38;11.30;;;8.07;;
74630;SDS011;63138;55.082;38.804;2023-04-03T10:12:00;9.10;;;6.78;;
74630;SDS011;63138;55.082;38.804;2023-04-03T10:19:52;11.07;;;6.80;;
74630;SDS011;63138;55.082;38.804;2023-04-03T10:44:31;8.48;;;5.80;;
74630;SDS011;63138;55.082;38.804;2023-04-03T10:47:34;10.17;;;5.70;;
74630;SDS011;63138;55.082;38.804;2023-04-03T10:50:51;8.90;;;5.45;;
74630;SDS011;63138;55.082;38.804;2023-04-03T10:58:44;10.13;;;6.30;;
74630;SDS011;63138;55.082;38.804;2023-04-03T11:01:19;8.70;;;6.10;;
74630;SDS011;63138;55.082;38.804;2023-04-03T11:03:53;6.72;;;5.28;;
74630;SDS011;63138;55.082;38.804;2023-04-03T11:06:22;7.57;;;5.53;;
74630;SDS011;63138;55.082;38.804;2023-04-03T11:11:44;6.72;;;5.28;;
74630;SDS011;63138;55.082;38.804;2023-04-03T11:14:25;6.60;;;5.43;;
74630;SDS011;63138;55.082;38.804;2023-04-03T11:17:02;7.97;;;5.32;;
74630;SDS011;63138;55.082;38.804;2023-04-03T11:19:57;13.20;;;5.80;;
74630;SDS011;63138;55.082;38.804;2023-04-03T11:22:45;8.43;;;5.63;;
74630;SDS011;63138;55.082;38.804;2023-04-03T11:25:20;7.30;;;5.55;;
74630;SDS011;63138;55.082;38.804;2023-04-03T11:28:14;6.70;;;4.50;;
74630;SDS011;63138;55.082;38.804;2023-04-03T11:43:32;5.27;;;4.43;;
74630;SDS011;63138;55.082;38.804;2023-04-03T11:46:03;8.63;;;4.47;;
74630;SDS011;63138;55.082;38.804;2023-04-03T11:53:54;6.32;;;4.40;;
74630;SDS011;63138;55.082;38.804;2023-04-03T12:01:48;5.80;;;4.55;;
74630;SDS011;63138;55.082;38.804;2023-04-03T12:04:19;8.73;;;4.75;;
74630;SDS011;63138;55.082;38.804;2023-04-03T12:09:22;7.27;;;4.07;;
74630;SDS011;63138;55.082;38.804;2023-04-03T12:12:01;5.78;;;4.03;;
74630;SDS011;63138;55.082;38.804;2023-04-03T12:14:54;10.20;;;4.57;;
74630;SDS011;63138;55.082;38.804;2023-04-03T12:17:26;11.48;;;5.50;;
74630;SDS011;63138;55.082;38.804;2023-04-03T12:19:55;8.90;;;4.95;;
74630;SDS011;63138;55.082;38.804;2023-04-03T12:22:22;5.43;;;4.00;;
74630;SDS011;63138;55.082;38.804;2023-04-03T12:24:52;10.57;;;5.07;;
74630;SDS011;63138;55.082;38.804;2023-04-03T12:32:40;7.63;;;4.40;;
74630;SDS011;63138;55.082;38.804;2023-04-03T12:41:03;5.07;;;3.78;;
74630;SDS011;63138;55.082;38.804;2023-04-03T12:49:33;6.67;;;5.00;;
74630;SDS011;63138;55.082;38.804;2023-04-03T12:52:19;6.72;;;4.40;;
74630;SDS011;63138;55.082;38.804;2023-04-03T12:54:52;9.68;;;4.93;;
74630;SDS011;63138;55.082;38.804;2023-04-03T12:57:25;5.88;;;4.70;;
74630;SDS011;63138;55.082;38.804;2023-04-03T12:59:53;7.63;;;5.13;;
74630;SDS011;63138;55.082;38.804;2023-04-03T13:05:17;6.70;;;4.78;;
74630;SDS011;63138;55.082;38.804;2023-04-03T13:07:48;7.38;;;4.40;;
74630;SDS011;63138;55.082;38.804;2023-04-03T13:10:51;10.38;;;4.72;;
74630;SDS011;63138;55.082;38.804;2023-04-03T13:13:24;7.32;;;4.72;;
74630;SDS011;63138;55.082;38.804;2023-04-03T13:15:52;9.87;;;4.60;;
74630;SDS011;63138;55.082;38.804;2023-04-03T13:18:21;5.57;;;4.10;;
74630;SDS011;63138;55.082;38.804;2023-04-03T13:23:55;7.85;;;4.07;;
74630;SDS011;63138;55.082;38.804;2023-04-03T13:26:49;5.95;;;3.85;;
74630;SDS011;63138;55.082;38.804;2023-04-03T13:29:42;9.03;;;4.43;;
74630;SDS011;63138;55.082;38.804;2023-04-03T13:32:18;10.05;;;4.85;;
74630;SDS011;63138;55.082;38.804;2023-04-03T13:34:49;8.38;;;4.40;;
74630;SDS011;63138;55.082;38.804;2023-04-03T13:37:23;6.45;;;4.40;;
74630;SDS011;63138;55.082;38.804;2023-04-03T13:39:58;8.85;;;4.30;;
74630;SDS011;63138;55.082;38.804;2023-04-03T13:43:03;7.23;;;5.03;;
74630;SDS011;63138;55.082;38.804;2023-04-03T13:45:56;7.55;;;3.85;;
74630;SDS011;63138;55.082;38.804;2023-04-03T13:48:52;11.05;;;5.47;;
74630;SDS011;63138;55.082;38.804;2023-04-03T13:51:26;6.15;;;3.95;;
74630;SDS011;63138;55.082;38.804;2023-04-03T13:56:27;8.50;;;5.00;;
74630;SDS011;63138;55.082;38.804;2023-04-03T14:04:30;6.47;;;4.22;;
74630;SDS011;63138;55.082;38.804;2023-04-03T14:07:03;7.47;;;4.35;;
74630;SDS011;63138;55.082;38.804;2023-04-03T14:09:29;8.87;;;4.60;;
74630;SDS011;63138;55.082;38.804;2023-04-03T14:11:59;7.10;;;4.40;;
74630;SDS011;63138;55.082;38.804;2023-04-03T14:14:33;7.32;;;3.75;;
74630;SDS011;63138;55.082;38.804;2023-04-03T14:17:02;6.95;;;4.53;;
74630;SDS011;63138;55.082;38.804;2023-04-03T14:19:55;6.30;;;4.53;;
74630;SDS011;63138;55.082;38.804;2023-04-03T14:22:26;6.37;;;4.80;;
74630;SDS011;63138;55.082;38.804;2023-04-03T14:24:56;6.82;;;4.47;;
74630;SDS011;63138;55.082;38.804;2023-04-03T14:27:31;6.70;;;4.65;;
74630;SDS011;63138;55.082;38.804;2023-04-03T14:30:02;7.50;;;5.30;;
74630;SDS011;63138;55.082;38.804;2023-04-03T14:32:30;6.93;;;5.15;;
74630;SDS011;63138;55.082;38.804;2023-04-03T14:34:56;7.30;;;4.47;;
74630;SDS011;63138;55.082;38.804;2023-04-03T14:37:27;5.68;;;4.65;;
74630;SDS011;63138;55.082;38.804;2023-04-03T14:39:58;7.80;;;4.57;;
74630;SDS011;63138;55.082;38.804;2023-04-03T14:42:31;8.63;;;4.50;;
74630;SDS011;63138;55.082;38.804;2023-04-03T14:45:00;7.20;;;4.53;;
74630;SDS011;63138;55.082;38.804;2023-04-03T14:47:29;6.27;;;4.67;;
74630;SDS011;63138;55.082;38.804;2023-04-03T14:49:56;6.88;;;5.00;;
74630;SDS011;63138;55.082;38.804;2023-04-03T14:52:29;5.82;;;4.32;;
74630;SDS011;63138;55.082;38.804;2023-04-03T14:55:05;5.60;;;4.45;;
74630;SDS011;63138;55.082;38.804;2023-04-03T14:57:32;6.10;;;4.93;;
74630;SDS011;63138;55.082;38.804;2023-04-03T14:59:58;8.90;;;5.17;;
74630;SDS011;63138;55.082;38.804;2023-04-03T15:02:34;13.90;;;5.65;;
74630;SDS011;63138;55.082;38.804;2023-04-03T15:05:27;7.90;;;5.00;;
74630;SDS011;63138;55.082;38.804;2023-04-03T15:08:22;8.27;;;5.60;;
74630;SDS011;63138;55.082;38.804;2023-04-03T15:10:53;9.20;;;5.78;;
74630;SDS011;63138;55.082;38.804;2023-04-03T15:13:22;9.07;;;5.40;;
74630;SDS011;63138;55.082;38.804;2023-04-03T15:15:49;7.18;;;4.53;;
74630;SDS011;63138;55.082;38.804;2023-04-03T15:18:23;8.32;;;4.60;;
74630;SDS011;63138;55.082;38.804;2023-04-03T15:20:52;8.15;;;4.22;;
74630;SDS011;63138;55.082;38.804;2023-04-03T15:23:18;5.70;;;3.92;;
74630;SDS011;63138;55.082;38.804;2023-04-03T15:25:48;6.57;;;4.10;;
74630;SDS011;63138;55.082;38.804;2023-04-03T15:28:20;5.75;;;4.32;;
74630;SDS011;63138;55.082;38.804;2023-04-03T15:31:07;6.28;;;4.72;;
74630;SDS011;63138;55.082;38.804;2023-04-03T15:33:34;7.20;;;4.40;;
74630;SDS011;63138;55.082;38.804;2023-04-03T15:36:01;7.35;;;4.90;;
74630;SDS011;63138;55.082;38.804;2023-04-03T15:38:31;6.30;;;4.50;;
74630;SDS011;63138;55.082;38.804;2023-04-03T15:40:57;7.95;;;4.53;;
74630;SDS011;63138;55.082;38.804;2023-04-03T15:43:23;14.43;;;4.13;;
74630;SDS011;63138;55.082;38.804;2023-04-03T15:45:50;7.68;;;3.33;;
74630;SDS011;63138;55.082;38.804;2023-04-03T15:48:16;7.57;;;3.50;;
74630;SDS011;63138;55.082;38.804;2023-04-03T15:50:43;14.93;;;3.57;;
74630;SDS011;63138;55.082;38.804;2023-04-03T15:53:09;5.35;;;3.65;;
74630;SDS011;63138;55.082;38.804;2023-04-03T15:55:37;6.68;;;2.83;;
74630;SDS011;63138;55.082;38.804;2023-04-03T15:58:03;4.53;;;3.60;;
74630;SDS011;63138;55.082;38.804;2023-04-03T16:00:30;5.28;;;3.33;;
74630;SDS011;63138;55.082;38.804;2023-04-03T16:03:23;8.30;;;4.00;;
74630;SDS011;63138;55.082;38.804;2023-04-03T16:08:41;5.53;;;4.15;;
74630;SDS011;63138;55.082;38.804;2023-04-03T16:11:11;5.25;;;3.65;;
74630;SDS011;63138;55.082;38.804;2023-04-03T16:13:40;5.73;;;4.13;;
74630;SDS011;63138;55.082;38.804;2023-04-03T16:16:06;7.18;;;4.18;;
74630;SDS011;63138;55.082;38.804;2023-04-03T16:18:33;6.35;;;4.32;;
74630;SDS011;63138;55.082;38.804;2023-04-03T16:21:00;5.07;;;3.60;;
74630;SDS011;63138;55.082;38.804;2023-04-03T16:23:27;5.75;;;3.92;;
74630;SDS011;63138;55.082;38.804;2023-04-03T16:25:54;5.53;;;3.87;;
74630;SDS011;63138;55.082;38.804;2023-04-03T16:28:20;5.45;;;4.03;;
74630;SDS011;63138;55.082;38.804;2023-04-03T16:30:46;5.25;;;3.92;;
74630;SDS011;63138;55.082;38.804;2023-04-03T16:33:14;5.88;;;3.42;;
74630;SDS011;63138;55.082;38.804;2023-04-03T16:36:05;6.50;;;4.67;;
74630;SDS011;63138;55.082;38.804;2023-04-03T16:38:37;7.35;;;4.78;;
74630;SDS011;63138;55.082;38.804;2023-04-03T16:41:05;8.82;;;5.00;;
74630;SDS011;63138;55.082;38.804;2023-04-03T16:43:31;8.25;;;5.15;;
74630;SDS011;63138;55.082;38.804;2023-04-03T16:46:00;7.82;;;5.60;;
74630;SDS011;63138;55.082;38.804;2023-04-03T16:48:30;8.40;;;5.87;;
74630;SDS011;63138;55.082;38.804;2023-04-03T16:50:56;9.23;;;5.65;;
74630;SDS011;63138;55.082;38.804;2023-04-03T16:53:22;9.60;;;5.88;;
74630;SDS011;63138;55.082;38.804;2023-04-03T16:55:50;14.50;;;9.30;;
74630;SDS011;63138;55.082;38.804;2023-04-03T16:58:16;16.73;;;10.70;;
74630;SDS011;63138;55.082;38.804;2023-04-03T17:00:45;17.47;;;10.53;;
74630;SDS011;63138;55.082;38.804;2023-04-03T17:03:14;14.27;;;7.97;;
74630;SDS011;63138;55.082;38.804;2023-04-03T17:06:10;10.25;;;7.45;;
74630;SDS011;63138;55.082;38.804;2023-04-03T17:08:42;11.73;;;6.93;;
74630;SDS011;63138;55.082;38.804;2023-04-03T17:11:26;9.02;;;6.93;;
74630;SDS011;63138;55.082;38.804;2023-04-03T17:14:22;12.57;;;7.47;;
74630;SDS011;63138;55.082;38.804;2023-04-03T17:16:53;9.68;;;6.22;;
74630;SDS011;63138;55.082;38.804;2023-04-03T17:19:23;12.55;;;7.10;;
74630;SDS011;63138;55.082;38.804;2023-04-03T17:21:49;11.50;;;6.88;;
74630;SDS011;63138;55.082;38.804;2023-04-03T17:24:24;12.23;;;7.05;;
74630;SDS011;63138;55.082;38.804;2023-04-03T17:26:51;10.93;;;6.63;;